createdAt,value
2018-05-18T00:00:04.111Z,131.12
2018-05-18T00:02:31.607Z,126.00
2018-05-18T00:04:59.085Z,120.20
2018-05-18T00:07:26.744Z,122.23
2018-05-18T00:09:54.234Z,113.28
2018-05-18T00:12:21.716Z,105.53
2018-05-18T00:14:49.209Z,103.37
2018-05-18T00:17:16.697Z,110.13
2018-05-18T00:19:44.188Z,102.47
2018-05-18T00:22:11.668Z,110.20
2018-05-18T00:24:39.163Z,111.80
2018-05-18T00:27:06.637Z,95.45
2018-05-18T00:29:34.111Z,97.47
2018-05-18T00:32:01.604Z,113.27
2018-05-18T00:34:29.080Z,110.50
2018-05-18T00:36:56.567Z,96.77
2018-05-18T00:39:24.039Z,93.78
2018-05-18T00:41:51.780Z,92.43
2018-05-18T00:44:19.284Z,95.53
2018-05-18T00:46:46.756Z,95.50
2018-05-18T00:49:14.241Z,91.50
2018-05-18T00:51:41.708Z,99.17
2018-05-18T00:54:09.221Z,97.23
2018-05-18T00:56:36.695Z,84.97
2018-05-18T00:59:04.168Z,92.83
2018-05-18T01:01:31.647Z,92.43
2018-05-18T01:03:59.132Z,100.90
2018-05-18T01:06:26.632Z,90.10
2018-05-18T01:08:54.096Z,87.57
2018-05-18T01:11:21.577Z,96.57
2018-05-18T01:13:49.070Z,86.17
2018-05-18T01:16:16.548Z,88.47
2018-05-18T01:18:44.040Z,93.33
2018-05-18T01:21:11.516Z,78.73
2018-05-18T01:23:39.013Z,107.00
2018-05-18T01:26:06.499Z,113.17
2018-05-18T01:28:33.976Z,101.03
2018-05-18T01:31:01.492Z,101.63
2018-05-18T01:33:28.978Z,107.70
2018-05-18T01:35:56.460Z,121.23
2018-05-18T01:38:23.955Z,115.60
2018-05-18T01:40:51.423Z,124.70
2018-05-18T01:43:18.912Z,136.10
2018-05-18T01:45:46.388Z,116.33
2018-05-18T01:48:13.866Z,120.57
2018-05-18T01:50:41.353Z,133.33
2018-05-18T01:53:08.827Z,127.33
2018-05-18T01:55:36.320Z,134.33
2018-05-18T01:58:03.788Z,128.83
2018-05-18T02:00:31.282Z,134.40
2018-05-18T02:02:58.763Z,122.20
2018-05-18T02:05:26.257Z,136.07
2018-05-18T02:07:53.743Z,129.17
2018-05-18T02:10:21.223Z,129.90
2018-05-18T02:12:48.731Z,123.60
2018-05-18T02:15:16.207Z,129.37
2018-05-18T02:17:43.692Z,122.47
2018-05-18T02:20:11.201Z,147.63
2018-05-18T02:22:38.709Z,155.10
2018-05-18T02:25:06.208Z,124.60
2018-05-18T02:27:33.684Z,143.73
2018-05-18T02:30:01.171Z,139.00
2018-05-18T02:32:28.685Z,148.20
2018-05-18T02:34:56.171Z,148.97
2018-05-18T02:37:23.670Z,163.83
2018-05-18T02:39:51.167Z,166.63
2018-05-18T02:42:18.644Z,175.67
2018-05-18T02:44:46.150Z,183.97
2018-05-18T02:47:13.630Z,196.00
2018-05-18T02:49:41.150Z,184.30
2018-05-18T02:52:08.628Z,190.97
2018-05-18T02:54:36.144Z,189.40
2018-05-18T02:57:03.621Z,193.47
2018-05-18T02:59:31.111Z,163.30
2018-05-18T03:01:58.620Z,164.00
2018-05-18T03:04:26.105Z,171.32
2018-05-18T03:06:53.607Z,178.77
2018-05-18T03:09:21.328Z,180.07
2018-05-18T03:11:48.833Z,179.10
2018-05-18T03:14:16.337Z,155.93
2018-05-18T03:16:43.812Z,155.80
2018-05-18T03:19:11.309Z,165.20
2018-05-18T03:21:38.780Z,143.03
2018-05-18T03:24:06.276Z,169.73
2018-05-18T03:26:33.754Z,141.95
2018-05-18T03:29:01.248Z,144.10
2018-05-18T03:31:28.752Z,151.80
2018-05-18T03:33:56.224Z,151.53
2018-05-18T03:36:23.734Z,136.53
2018-05-18T03:38:51.218Z,155.93
2018-05-18T03:41:18.692Z,137.43
2018-05-18T03:43:46.183Z,147.83
2018-05-18T03:46:13.659Z,144.33
2018-05-18T03:48:41.191Z,141.90
2018-05-18T03:51:08.659Z,130.00
2018-05-18T03:53:36.148Z,143.43
2018-05-18T03:56:03.638Z,163.97
2018-05-18T03:58:31.119Z,149.68
2018-05-18T04:00:58.612Z,136.47
2018-05-18T04:03:37.865Z,121.47
2018-05-18T04:06:17.132Z,125.23
2018-05-18T04:08:53.625Z,124.13
2018-05-18T04:11:21.117Z,138.13
2018-05-18T04:13:48.592Z,112.83
2018-05-18T04:16:16.074Z,110.40
2018-05-18T04:18:43.577Z,106.87
2018-05-18T04:21:11.052Z,129.00
2018-05-18T04:23:38.542Z,114.82
2018-05-18T04:26:06.017Z,112.97
2018-05-18T04:28:33.518Z,103.32
2018-05-18T04:31:01.089Z,128.90
2018-05-18T04:33:28.507Z,104.30
2018-05-18T04:35:56.001Z,112.87
2018-05-18T04:38:23.476Z,108.70
2018-05-18T04:40:51.268Z,100.93
2018-05-18T04:43:18.762Z,106.55
2018-05-18T04:45:46.282Z,116.50
2018-05-18T04:48:13.967Z,96.63
2018-05-18T04:50:41.439Z,97.07
2018-05-18T04:53:08.951Z,89.93
2018-05-18T04:55:36.425Z,93.50
2018-05-18T04:58:03.900Z,104.63
2018-05-18T05:00:31.392Z,99.63
2018-05-18T05:02:58.856Z,93.47
2018-05-18T05:05:26.374Z,105.25
2018-05-18T05:07:53.872Z,83.17
2018-05-18T05:10:21.566Z,92.67
2018-05-18T05:12:49.065Z,93.30
2018-05-18T05:15:16.544Z,79.10
2018-05-18T05:17:44.035Z,90.63
2018-05-18T05:20:11.501Z,80.73
2018-05-18T05:22:38.972Z,100.33
2018-05-18T05:25:06.470Z,92.23
2018-05-18T05:27:33.942Z,86.90
2018-05-18T05:30:01.425Z,80.35
2018-05-18T05:32:28.897Z,79.13
2018-05-18T05:34:56.361Z,76.63
2018-05-18T05:37:23.859Z,71.20
2018-05-18T05:39:51.332Z,89.50
2018-05-18T05:42:18.825Z,68.17
2018-05-18T05:44:46.307Z,77.65
2018-05-18T05:47:13.776Z,68.10
2018-05-18T05:49:41.271Z,71.83
2018-05-18T05:52:08.737Z,72.33
2018-05-18T05:54:36.224Z,76.87
2018-05-18T05:57:03.684Z,86.87
2018-05-18T05:59:31.152Z,72.00
2018-05-18T06:01:58.635Z,75.62
2018-05-18T06:04:26.107Z,76.50
2018-05-18T06:06:53.596Z,84.82
2018-05-18T06:09:21.072Z,77.67
2018-05-18T06:11:48.539Z,87.88
2018-05-18T06:14:16.028Z,88.17
2018-05-18T06:16:43.496Z,97.18
2018-05-18T06:19:10.984Z,90.60
2018-05-18T06:21:38.456Z,81.77
2018-05-18T06:24:05.916Z,88.43
2018-05-18T06:26:33.409Z,91.70
2018-05-18T06:29:00.875Z,74.23
2018-05-18T06:31:28.379Z,73.30
2018-05-18T06:33:55.851Z,75.00
2018-05-18T06:36:23.342Z,71.63
2018-05-18T06:38:50.832Z,78.62
2018-05-18T06:41:18.349Z,80.70
2018-05-18T06:43:45.922Z,83.00
2018-05-18T06:46:13.392Z,71.50
2018-05-18T06:48:40.889Z,71.23
2018-05-18T06:51:08.368Z,76.30
2018-05-18T06:53:35.839Z,70.30
2018-05-18T06:56:03.335Z,69.23
2018-05-18T06:58:30.796Z,88.40
2018-05-18T07:00:58.260Z,81.37
2018-05-18T07:03:25.740Z,64.63
2018-05-18T07:05:53.207Z,65.43
2018-05-18T07:08:20.688Z,68.97
2018-05-18T07:10:48.628Z,89.57
2018-05-18T07:13:16.093Z,62.37
2018-05-18T07:15:43.581Z,64.70
2018-05-18T07:18:11.046Z,63.47
2018-05-18T07:20:38.545Z,67.90
2018-05-18T07:23:06.093Z,71.45
2018-05-18T07:25:33.524Z,70.03
2018-05-18T07:28:00.996Z,63.20
2018-05-18T07:30:28.464Z,79.03
2018-05-18T07:32:55.954Z,65.90
2018-05-18T07:35:23.419Z,74.73
2018-05-18T07:37:50.913Z,69.80
2018-05-18T07:40:18.391Z,77.93
2018-05-18T07:42:45.865Z,63.03
2018-05-18T07:45:13.348Z,58.53
2018-05-18T07:47:40.817Z,60.13
2018-05-18T07:50:08.321Z,54.90
2018-05-18T07:52:35.783Z,75.90
2018-05-18T07:55:03.255Z,63.33
2018-05-18T07:57:30.735Z,61.17
2018-05-18T07:59:58.201Z,57.63
2018-05-18T08:02:25.688Z,61.00
2018-05-18T08:04:53.157Z,58.87
2018-05-18T08:07:20.645Z,64.90
2018-05-18T08:09:48.124Z,69.33
2018-05-18T08:12:15.593Z,57.90
2018-05-18T08:14:43.077Z,64.33
2018-05-18T08:17:10.553Z,63.77
2018-05-18T08:19:38.036Z,61.67
2018-05-18T08:22:05.515Z,59.25
2018-05-18T08:24:33.013Z,56.50
2018-05-18T08:27:12.179Z,65.20
2018-05-18T08:29:39.623Z,51.10
2018-05-18T08:32:07.079Z,45.53
2018-05-18T08:34:34.549Z,46.90
2018-05-18T08:37:02.053Z,61.27
2018-05-18T08:39:29.515Z,57.43
2018-05-18T08:41:57.011Z,59.17
2018-05-18T08:44:24.504Z,56.57
2018-05-18T08:46:52.456Z,45.83
2018-05-18T08:49:19.939Z,78.45
2018-05-18T08:51:47.414Z,48.40
2018-05-18T08:54:14.899Z,63.20
2018-05-18T08:56:42.365Z,51.67
2018-05-18T08:59:09.844Z,58.53
2018-05-18T09:01:37.328Z,56.10
2018-05-18T09:04:04.800Z,72.70
2018-05-18T09:06:32.295Z,51.25
2018-05-18T09:08:59.821Z,58.53
2018-05-18T09:11:27.240Z,48.83
2018-05-18T09:13:54.717Z,53.40
2018-05-18T09:16:22.183Z,48.38
2018-05-18T09:18:49.666Z,48.93
2018-05-18T09:21:17.133Z,71.07
2018-05-18T09:23:44.602Z,48.97
2018-05-18T09:26:12.092Z,44.90
2018-05-18T09:28:39.570Z,45.53
2018-05-18T09:31:07.034Z,38.13
2018-05-18T09:33:34.517Z,45.33
2018-05-18T09:36:01.986Z,47.80
2018-05-18T09:38:29.670Z,45.73
2018-05-18T09:40:57.131Z,34.83
2018-05-18T09:43:24.595Z,36.27
2018-05-18T09:45:52.075Z,33.70
2018-05-18T09:48:19.540Z,40.00
2018-05-18T09:50:47.279Z,39.60
2018-05-18T09:53:14.743Z,33.60
2018-05-18T09:55:42.214Z,37.80
2018-05-18T09:58:10.127Z,42.97
2018-05-18T10:00:37.601Z,41.83
2018-05-18T10:03:05.100Z,60.80
2018-05-18T10:05:32.573Z,35.50
2018-05-18T10:08:00.037Z,49.30
2018-05-18T10:10:27.527Z,33.60
2018-05-18T10:12:54.984Z,44.23
2018-05-18T10:15:22.478Z,37.90
2018-05-18T10:17:49.940Z,30.53
2018-05-18T10:20:17.417Z,34.80
2018-05-18T10:22:44.901Z,27.67
2018-05-18T10:25:12.989Z,28.40
2018-05-18T10:27:40.480Z,28.73
2018-05-18T10:30:07.954Z,41.83
2018-05-18T10:32:35.428Z,36.97
2018-05-18T10:35:02.916Z,31.63
2018-05-18T10:37:30.383Z,38.63
2018-05-18T10:39:57.846Z,30.50
2018-05-18T10:42:25.331Z,26.20
2018-05-18T10:44:52.786Z,29.73
2018-05-18T10:47:20.276Z,33.03
2018-05-18T10:49:47.740Z,36.37
2018-05-18T10:52:15.196Z,40.37
2018-05-18T10:54:42.676Z,45.87
2018-05-18T10:57:10.136Z,35.53
2018-05-18T10:59:37.623Z,40.50
2018-05-18T11:02:05.083Z,33.47
2018-05-18T11:04:32.607Z,42.42
2018-05-18T11:07:00.178Z,49.60
2018-05-18T11:09:27.536Z,33.60
2018-05-18T11:11:55.015Z,33.77
2018-05-18T11:14:22.480Z,29.07
2018-05-18T11:16:50.220Z,26.57
2018-05-18T11:19:17.684Z,26.00
2018-05-18T11:21:45.160Z,51.67
2018-05-18T11:24:12.649Z,32.03
2018-05-18T11:26:40.112Z,29.17
2018-05-18T11:29:07.599Z,36.13
2018-05-18T11:31:35.064Z,29.23
2018-05-18T11:34:02.531Z,30.63
2018-05-18T11:36:30.013Z,24.77
2018-05-18T11:38:57.476Z,37.17
2018-05-18T11:41:24.958Z,37.47
2018-05-18T11:43:52.416Z,26.43
2018-05-18T11:46:19.875Z,30.90
2018-05-18T11:48:47.357Z,26.70
2018-05-18T11:51:14.820Z,32.57
2018-05-18T11:53:42.744Z,28.12
2018-05-18T11:56:10.208Z,33.03
2018-05-18T11:58:37.677Z,32.70
2018-05-18T12:01:05.160Z,23.07
2018-05-18T12:03:32.626Z,23.37
2018-05-18T12:06:00.121Z,21.10
2018-05-18T12:08:28.306Z,19.65
2018-05-18T12:10:55.775Z,22.90
2018-05-18T12:13:23.262Z,29.97
2018-05-18T12:15:50.738Z,19.27
2018-05-18T12:18:18.344Z,41.40
2018-05-18T12:20:45.806Z,25.23
2018-05-18T12:23:13.272Z,36.27
2018-05-18T12:25:40.757Z,21.60
2018-05-18T12:28:08.224Z,23.30
2018-05-18T12:30:35.720Z,28.43
2018-05-18T12:33:03.188Z,25.43
2018-05-18T12:35:30.849Z,23.83
2018-05-18T12:37:58.373Z,31.70
2018-05-18T12:40:25.819Z,24.47
2018-05-18T12:42:53.298Z,22.60
2018-05-18T12:45:20.767Z,28.65
2018-05-18T12:47:48.239Z,29.87
2018-05-18T12:50:15.724Z,29.30
2018-05-18T12:52:43.192Z,28.97
2018-05-18T12:55:11.080Z,33.80
2018-05-18T12:57:38.547Z,23.70
2018-05-18T13:00:06.012Z,27.00
2018-05-18T13:02:34.335Z,41.13
2018-05-18T13:05:01.811Z,20.90
2018-05-18T13:07:29.620Z,19.17
2018-05-18T13:09:57.088Z,19.67
2018-05-18T13:12:25.261Z,18.30
2018-05-18T13:14:52.747Z,18.85
2018-05-18T13:17:20.216Z,17.63
2018-05-18T13:19:47.702Z,22.13
2018-05-18T13:22:15.171Z,20.73
2018-05-18T13:24:42.637Z,19.73
2018-05-18T13:27:10.117Z,21.83
2018-05-18T13:29:37.700Z,19.97
2018-05-18T13:32:05.195Z,26.07
2018-05-18T13:34:32.661Z,27.50
2018-05-18T13:37:00.119Z,18.10
2018-05-18T13:39:27.608Z,20.20
2018-05-18T13:41:55.076Z,19.15
2018-05-18T13:44:22.580Z,21.55
2018-05-18T13:46:50.044Z,26.40
2018-05-18T13:49:17.552Z,22.00
2018-05-18T13:51:45.030Z,18.77
2018-05-18T13:54:12.500Z,17.02
2018-05-18T13:56:39.988Z,19.70
2018-05-18T13:59:07.476Z,25.00
2018-05-18T14:01:34.960Z,35.23
2018-05-18T14:04:02.425Z,24.23
2018-05-18T14:06:29.925Z,19.97
2018-05-18T14:08:57.384Z,14.30
2018-05-18T14:11:24.844Z,2.97
2018-05-18T14:13:52.321Z,4.22
2018-05-18T14:16:19.785Z,3.20
2018-05-18T14:18:47.260Z,9.77
2018-05-18T14:21:14.723Z,7.43
2018-05-18T14:23:42.959Z,4.22
2018-05-18T14:26:10.427Z,3.20
2018-05-18T14:28:37.892Z,3.77
2018-05-18T14:31:05.697Z,11.43
2018-05-18T14:33:33.148Z,7.80
2018-05-18T14:36:00.617Z,20.10
2018-05-18T14:38:28.107Z,27.17
2018-05-18T14:40:55.571Z,17.07
2018-05-18T14:43:23.049Z,10.23
2018-05-18T14:45:50.515Z,8.10
2018-05-18T14:48:17.991Z,14.77
2018-05-18T14:50:45.484Z,16.83
2018-05-18T14:53:12.969Z,21.00
2018-05-18T14:55:40.469Z,20.27
2018-05-18T14:58:07.938Z,18.60
2018-05-18T15:00:35.417Z,17.47
2018-05-18T15:03:02.895Z,14.13
2018-05-18T15:05:30.355Z,8.93
2018-05-18T15:07:57.855Z,11.90
2018-05-18T15:10:25.325Z,9.97
2018-05-18T15:12:52.791Z,14.93
2018-05-18T15:15:20.299Z,16.67
2018-05-18T15:17:47.833Z,12.53
2018-05-18T15:20:15.319Z,33.73
2018-05-18T15:22:42.789Z,13.93
2018-05-18T15:25:10.263Z,10.30
2018-05-18T15:27:37.749Z,13.80
2018-05-18T15:30:05.212Z,16.00
2018-05-18T15:32:32.690Z,13.60
2018-05-18T15:35:00.155Z,10.47
2018-05-18T15:37:27.722Z,10.00
2018-05-18T15:39:55.121Z,8.90
2018-05-18T15:42:22.580Z,12.40
2018-05-18T15:44:50.083Z,14.93
2018-05-18T15:47:17.544Z,9.10
2018-05-18T15:49:45.014Z,7.87
2018-05-18T15:52:12.519Z,17.53
2018-05-18T15:54:39.984Z,8.73
2018-05-18T15:57:07.465Z,8.43
2018-05-18T15:59:34.927Z,10.90
2018-05-18T16:02:02.412Z,7.90
2018-05-18T16:04:29.890Z,11.17
2018-05-18T16:06:57.925Z,11.93
2018-05-18T16:09:25.415Z,11.33
2018-05-18T16:11:52.871Z,8.37
2018-05-18T16:14:20.658Z,6.93
2018-05-18T16:16:48.124Z,7.87
2018-05-18T16:19:15.579Z,9.27
2018-05-18T16:21:43.053Z,9.23
2018-05-18T16:24:10.512Z,7.00
2018-05-18T16:26:37.995Z,17.73
2018-05-18T16:29:05.443Z,9.45
2018-05-18T16:31:32.911Z,16.33
2018-05-18T16:34:00.391Z,33.87
2018-05-18T16:36:27.852Z,10.50
2018-05-18T16:38:55.335Z,8.57
2018-05-18T16:41:22.800Z,16.10
2018-05-18T16:43:50.264Z,9.00
2018-05-18T16:46:17.751Z,12.50
2018-05-18T16:48:45.230Z,12.67
2018-05-18T16:51:12.715Z,12.43
2018-05-18T16:53:40.172Z,18.70
2018-05-18T16:56:07.657Z,12.40
2018-05-18T16:58:35.195Z,10.93
2018-05-18T17:01:02.659Z,6.83
2018-05-18T17:03:30.144Z,5.37
2018-05-18T17:05:57.611Z,10.33
2018-05-18T17:08:25.071Z,6.03
2018-05-18T17:10:52.536Z,5.33
2018-05-18T17:13:19.997Z,5.43
2018-05-18T17:15:47.463Z,7.97
2018-05-18T17:18:14.944Z,10.68
2018-05-18T17:20:42.433Z,5.33
2018-05-18T17:23:09.919Z,9.05
2018-05-18T17:25:37.368Z,17.30
2018-05-18T17:28:04.838Z,7.20
2018-05-18T17:30:32.288Z,8.30
2018-05-18T17:32:59.901Z,5.23
2018-05-18T17:35:27.304Z,6.20
2018-05-18T17:37:54.787Z,9.93
2018-05-18T17:40:22.343Z,11.93
2018-05-18T17:42:49.938Z,10.53
2018-05-18T17:45:17.428Z,5.62
2018-05-18T17:47:44.944Z,8.73
2018-05-18T17:50:12.471Z,37.63
2018-05-18T17:52:39.961Z,9.00
2018-05-18T17:55:07.453Z,10.53
2018-05-18T17:57:34.951Z,6.18
2018-05-18T18:00:02.424Z,9.75
2018-05-18T18:02:30.053Z,10.93
2018-05-18T18:04:57.580Z,12.63
2018-05-18T18:07:25.307Z,10.45
2018-05-18T18:09:52.804Z,13.47
2018-05-18T18:12:20.276Z,15.13
2018-05-18T18:14:47.769Z,11.60
2018-05-18T18:17:15.275Z,12.50
2018-05-18T18:19:42.787Z,19.58
2018-05-18T18:22:10.640Z,12.57
2018-05-18T18:24:38.134Z,16.83
2018-05-18T18:27:05.636Z,15.37
2018-05-18T18:29:33.100Z,20.35
2018-05-18T18:32:02.151Z,12.10
2018-05-18T18:34:30.622Z,11.68
2018-05-18T18:36:59.002Z,16.13
2018-05-18T18:39:27.448Z,15.20
2018-05-18T18:41:55.358Z,15.33
2018-05-18T18:44:23.601Z,11.73
2018-05-18T18:46:52.008Z,17.23
2018-05-18T18:49:20.116Z,23.73
2018-05-18T18:51:48.710Z,17.20
2018-05-18T18:54:16.752Z,13.50
2018-05-18T18:56:44.852Z,17.53
2018-05-18T18:59:12.676Z,18.08
2018-05-18T19:01:40.787Z,16.33
2018-05-18T19:04:09.415Z,12.90
2018-05-18T19:06:37.737Z,12.40
2018-05-18T19:09:06.696Z,13.53
2018-05-18T19:11:34.759Z,14.73
2018-05-18T19:14:02.848Z,14.47
2018-05-18T19:16:30.696Z,21.02
2018-05-18T19:18:58.976Z,12.43
2018-05-18T19:21:27.084Z,14.27
2018-05-18T19:23:55.290Z,13.97
2018-05-18T19:26:23.997Z,16.42
2018-05-18T19:28:51.493Z,22.30
2018-05-18T19:31:19.169Z,17.23
2018-05-18T19:33:46.983Z,19.80
2018-05-18T19:36:14.554Z,113.60
2018-05-18T19:38:42.070Z,121.03
2018-05-18T19:41:09.555Z,176.83
2018-05-18T19:43:37.032Z,36.13
2018-05-18T19:46:04.543Z,30.43
2018-05-18T19:48:32.049Z,23.27
2018-05-18T19:50:59.610Z,28.03
2018-05-18T19:53:27.092Z,22.50
2018-05-18T19:55:54.579Z,21.53
2018-05-18T19:58:22.099Z,29.00
2018-05-18T20:00:49.599Z,23.83
2018-05-18T20:03:17.103Z,27.42
2018-05-18T20:05:44.615Z,25.50
2018-05-18T20:08:12.124Z,30.80
2018-05-18T20:10:39.592Z,30.10
2018-05-18T20:13:07.079Z,23.60
2018-05-18T20:15:34.557Z,21.42
2018-05-18T20:18:02.132Z,26.85
2018-05-18T20:20:29.671Z,23.57
2018-05-18T20:22:57.147Z,21.80
2018-05-18T20:25:24.645Z,23.40
2018-05-18T20:27:52.129Z,22.40
2018-05-18T20:30:19.683Z,23.02
2018-05-18T20:32:47.160Z,18.62
2018-05-18T20:35:14.674Z,29.60
2018-05-18T20:37:42.149Z,25.05
2018-05-18T20:40:09.615Z,22.73
2018-05-18T20:42:37.179Z,22.10
2018-05-18T20:45:04.869Z,19.63
2018-05-18T20:47:32.593Z,37.07
2018-05-18T20:50:00.069Z,29.07
2018-05-18T20:52:27.548Z,23.13
2018-05-18T20:54:55.044Z,20.30
2018-05-18T20:57:22.507Z,19.53
2018-05-18T20:59:51.007Z,18.03
2018-05-18T21:02:18.488Z,164.70
2018-05-18T21:04:45.956Z,85.70
2018-05-18T21:07:13.719Z,22.47
2018-05-18T21:09:41.196Z,22.07
2018-05-18T21:12:08.682Z,18.13
2018-05-18T21:14:37.066Z,17.30
2018-05-18T21:17:04.712Z,17.47
2018-05-18T21:19:32.255Z,27.53
2018-05-18T21:21:59.805Z,18.27
2018-05-18T21:24:27.276Z,16.90
2018-05-18T21:26:54.768Z,17.55
2018-05-18T21:29:22.244Z,16.67
2018-05-18T21:31:49.717Z,21.93
2018-05-18T21:34:17.203Z,20.73
2018-05-18T21:36:44.672Z,17.20
2018-05-18T21:39:12.159Z,15.73
2018-05-18T21:41:39.619Z,20.33
2018-05-18T21:44:07.095Z,18.00
2018-05-18T21:46:34.579Z,16.20
2018-05-18T21:49:02.048Z,17.80
2018-05-18T21:51:30.279Z,238.27
2018-05-18T21:53:57.756Z,56.53
2018-05-18T21:56:25.224Z,28.20
2018-05-18T21:58:52.948Z,19.40
2018-05-18T22:01:20.436Z,18.87
2018-05-18T22:03:47.925Z,24.13
2018-05-18T22:06:15.612Z,26.13
2018-05-18T22:08:43.100Z,21.27
2018-05-18T22:11:10.910Z,24.13
2018-05-18T22:13:38.377Z,26.00
2018-05-18T22:16:06.136Z,22.37
2018-05-18T22:18:33.702Z,22.33
2018-05-18T22:21:01.344Z,24.42
2018-05-18T22:23:29.049Z,34.63
2018-05-18T22:25:56.600Z,24.80
2018-05-18T22:28:24.086Z,24.40
2018-05-18T22:30:51.641Z,24.87
2018-05-18T22:33:19.068Z,27.83
2018-05-18T22:35:46.541Z,28.23
2018-05-18T22:38:14.311Z,28.23
2018-05-18T22:40:41.907Z,29.00
2018-05-18T22:43:09.375Z,30.20
2018-05-18T22:45:36.877Z,24.00
2018-05-18T22:48:04.543Z,23.67
2018-05-18T22:50:33.128Z,26.20
2018-05-18T22:53:00.685Z,21.57
2018-05-18T22:55:28.156Z,22.53
2018-05-18T22:57:55.632Z,23.62
2018-05-18T23:00:26.833Z,21.27
2018-05-18T23:02:54.333Z,21.23
2018-05-18T23:05:21.805Z,23.00
2018-05-18T23:07:49.288Z,23.37
2018-05-18T23:10:17.115Z,24.13
2018-05-18T23:12:44.582Z,27.90
2018-05-18T23:15:12.070Z,28.73
2018-05-18T23:17:39.554Z,33.57
2018-05-18T23:20:07.049Z,34.93
2018-05-18T23:22:34.512Z,27.93
2018-05-18T23:25:01.989Z,27.03
2018-05-18T23:27:29.472Z,31.07
2018-05-18T23:29:56.948Z,27.13
2018-05-18T23:32:24.452Z,27.80
2018-05-18T23:34:51.920Z,25.63
2018-05-18T23:37:19.406Z,26.77
2018-05-18T23:39:46.895Z,29.03
2018-05-18T23:42:14.372Z,30.60
2018-05-18T23:44:41.883Z,29.95
2018-05-18T23:47:09.373Z,25.52
2018-05-18T23:49:36.875Z,25.30
2018-05-18T23:52:04.343Z,33.10
2018-05-18T23:54:31.817Z,26.47
